sensor_id;sensor_type;location;lat;lon;timestamp;pressure;altitude;pressure_sealevel;temperature;humidity
37610;BME280;23457;51.966;8.230;2023-02-19T00:01:23;100868.81;;;10.13;100.00
37610;BME280;23457;51.966;8.230;2023-02-19T00:03:53;100866.41;;;10.20;100.00
37610;BME280;23457;51.966;8.230;2023-02-19T00:06:22;100861.03;;;10.13;100.00
37610;BME280;23457;51.966;8.230;2023-02-19T00:08:49;100852.22;;;10.06;100.00
37610;BME280;23457;51.966;8.230;2023-02-19T00:11:19;100856.72;;;10.15;100.00
37610;BME280;23457;51.966;8.230;2023-02-19T00:13:48;100864.81;;;10.28;100.00
37610;BME280;23457;51.966;8.230;2023-02-19T00:16:32;100861.41;;;9.90;100.00
37610;BME280;23457;51.966;8.230;2023-02-19T00:19:00;100852.94;;;9.97;100.00
37610;BME280;23457;51.966;8.230;2023-02-19T00:21:28;100846.78;;;9.94;100.00
37610;BME280;23457;51.966;8.230;2023-02-19T00:23:57;100841.88;;;10.07;100.00
37610;BME280;23457;51.966;8.230;2023-02-19T00:26:24;100835.47;;;10.32;100.00
37610;BME280;23457;51.966;8.230;2023-02-19T00:28:53;100835.28;;;10.23;100.00
37610;BME280;23457;51.966;8.230;2023-02-19T00:31:22;100844.09;;;10.31;100.00
37610;BME280;23457;51.966;8.230;2023-02-19T00:33:51;100844.78;;;10.21;100.00
37610;BME280;23457;51.966;8.230;2023-02-19T00:36:19;100839.63;;;10.23;100.00
37610;BME280;23457;51.966;8.230;2023-02-19T00:38:46;100835.97;;;10.16;100.00
37610;BME280;23457;51.966;8.230;2023-02-19T00:41:14;100825.56;;;10.13;100.00
37610;BME280;23457;51.966;8.230;2023-02-19T00:46:17;100834.84;;;10.03;100.00
37610;BME280;23457;51.966;8.230;2023-02-19T00:48:44;100842.81;;;10.11;100.00
37610;BME280;23457;51.966;8.230;2023-02-19T00:51:11;100829.56;;;9.97;100.00
37610;BME280;23457;51.966;8.230;2023-02-19T00:53:38;100829.22;;;10.23;100.00
37610;BME280;23457;51.966;8.230;2023-02-19T00:56:05;100827.16;;;10.08;100.00
37610;BME280;23457;51.966;8.230;2023-02-19T00:58:32;100829.03;;;10.15;100.00
37610;BME280;23457;51.966;8.230;2023-02-19T01:00:59;100826.53;;;10.18;100.00
37610;BME280;23457;51.966;8.230;2023-02-19T01:03:26;100825.91;;;10.31;100.00
37610;BME280;23457;51.966;8.230;2023-02-19T01:05:53;100822.47;;;10.32;100.00
37610;BME280;23457;51.966;8.230;2023-02-19T01:08:20;100819.78;;;10.28;100.00
37610;BME280;23457;51.966;8.230;2023-02-19T01:10:47;100822.41;;;10.29;100.00
37610;BME280;23457;51.966;8.230;2023-02-19T01:13:14;100818.06;;;10.28;100.00
37610;BME280;23457;51.966;8.230;2023-02-19T01:15:41;100816.91;;;10.16;100.00
37610;BME280;23457;51.966;8.230;2023-02-19T01:18:07;100824.00;;;10.21;100.00
37610;BME280;23457;51.966;8.230;2023-02-19T01:20:37;100820.03;;;10.41;100.00
37610;BME280;23457;51.966;8.230;2023-02-19T01:23:04;100830.06;;;10.22;100.00
37610;BME280;23457;51.966;8.230;2023-02-19T01:25:31;100822.34;;;10.26;100.00
37610;BME280;23457;51.966;8.230;2023-02-19T01:27:58;100825.63;;;10.18;100.00
37610;BME280;23457;51.966;8.230;2023-02-19T01:30:25;100824.94;;;10.26;100.00
37610;BME280;23457;51.966;8.230;2023-02-19T01:32:51;100825.97;;;10.34;100.00
37610;BME280;23457;51.966;8.230;2023-02-19T01:35:18;100820.88;;;10.40;100.00
37610;BME280;23457;51.966;8.230;2023-02-19T01:37:44;100825.16;;;10.37;100.00
37610;BME280;23457;51.966;8.230;2023-02-19T01:40:11;100825.88;;;10.30;100.00
37610;BME280;23457;51.966;8.230;2023-02-19T01:42:42;100819.00;;;10.32;100.00
37610;BME280;23457;51.966;8.230;2023-02-19T01:45:32;100833.78;;;10.34;100.00
37610;BME280;23457;51.966;8.230;2023-02-19T01:48:19;100824.19;;;10.32;100.00
37610;BME280;23457;51.966;8.230;2023-02-19T01:50:57;100821.56;;;10.30;100.00
37610;BME280;23457;51.966;8.230;2023-02-19T01:53:29;100830.34;;;10.35;100.00
37610;BME280;23457;51.966;8.230;2023-02-19T01:55:58;100825.13;;;10.35;100.00
37610;BME280;23457;51.966;8.230;2023-02-19T01:58:29;100822.69;;;10.45;100.00
37610;BME280;23457;51.966;8.230;2023-02-19T02:00:58;100826.59;;;10.21;100.00
37610;BME280;23457;51.966;8.230;2023-02-19T02:03:28;100824.31;;;10.38;100.00
37610;BME280;23457;51.966;8.230;2023-02-19T02:08:44;100824.47;;;10.47;100.00
37610;BME280;23457;51.966;8.230;2023-02-19T02:11:30;100832.13;;;10.39;100.00
37610;BME280;23457;51.966;8.230;2023-02-19T02:13:57;100829.72;;;10.49;100.00
37610;BME280;23457;51.966;8.230;2023-02-19T02:16:25;100829.53;;;10.39;100.00
37610;BME280;23457;51.966;8.230;2023-02-19T02:19:13;100818.03;;;10.25;100.00
37610;BME280;23457;51.966;8.230;2023-02-19T02:35:52;100811.84;;;10.20;100.00
37610;BME280;23457;51.966;8.230;2023-02-19T02:38:22;100817.34;;;10.35;100.00
37610;BME280;23457;51.966;8.230;2023-02-19T02:40:52;100814.53;;;10.23;100.00
37610;BME280;23457;51.966;8.230;2023-02-19T02:43:20;100828.75;;;10.44;100.00
37610;BME280;23457;51.966;8.230;2023-02-19T02:45:47;100823.38;;;10.34;100.00
37610;BME280;23457;51.966;8.230;2023-02-19T02:48:42;100820.38;;;10.16;100.00
37610;BME280;23457;51.966;8.230;2023-02-19T02:51:16;100820.53;;;10.21;100.00
37610;BME280;23457;51.966;8.230;2023-02-19T02:54:15;100821.72;;;10.39;100.00
37610;BME280;23457;51.966;8.230;2023-02-19T02:57:08;100820.75;;;10.33;100.00
37610;BME280;23457;51.966;8.230;2023-02-19T02:59:47;100816.94;;;10.17;100.00
37610;BME280;23457;51.966;8.230;2023-02-19T03:02:28;100809.41;;;10.29;100.00
37610;BME280;23457;51.966;8.230;2023-02-19T03:05:20;100812.94;;;10.31;100.00
37610;BME280;23457;51.966;8.230;2023-02-19T03:08:35;100814.56;;;10.26;100.00
37610;BME280;23457;51.966;8.230;2023-02-19T03:11:06;100810.63;;;10.47;100.00
37610;BME280;23457;51.966;8.230;2023-02-19T03:14:17;100815.44;;;10.25;100.00
37610;BME280;23457;51.966;8.230;2023-02-19T03:17:19;100814.34;;;10.17;100.00
37610;BME280;23457;51.966;8.230;2023-02-19T03:20:09;100814.28;;;10.14;100.00
37610;BME280;23457;51.966;8.230;2023-02-19T03:22:39;100822.75;;;10.48;100.00
37610;BME280;23457;51.966;8.230;2023-02-19T03:25:17;100824.63;;;10.11;100.00
37610;BME280;23457;51.966;8.230;2023-02-19T03:28:07;100824.63;;;10.11;100.00
37610;BME280;23457;51.966;8.230;2023-02-19T03:30:38;100829.13;;;10.18;100.00
37610;BME280;23457;51.966;8.230;2023-02-19T03:33:15;100840.72;;;9.93;100.00
37610;BME280;23457;51.966;8.230;2023-02-19T03:35:48;100834.09;;;10.07;100.00
37610;BME280;23457;51.966;8.230;2023-02-19T03:38:19;100846.00;;;9.98;100.00
37610;BME280;23457;51.966;8.230;2023-02-19T03:41:06;100842.63;;;10.02;100.00
37610;BME280;23457;51.966;8.230;2023-02-19T03:44:09;100840.34;;;9.77;100.00
37610;BME280;23457;51.966;8.230;2023-02-19T03:49:44;100854.81;;;10.06;100.00
37610;BME280;23457;51.966;8.230;2023-02-19T03:52:40;100859.88;;;9.98;100.00
37610;BME280;23457;51.966;8.230;2023-02-19T03:58:08;100873.28;;;9.79;100.00
37610;BME280;23457;51.966;8.230;2023-02-19T04:00:43;100871.91;;;9.95;100.00
37610;BME280;23457;51.966;8.230;2023-02-19T04:06:08;100869.91;;;9.82;100.00
37610;BME280;23457;51.966;8.230;2023-02-19T04:08:38;100869.63;;;10.10;100.00
37610;BME280;23457;51.966;8.230;2023-02-19T04:11:07;100867.59;;;9.95;100.00
37610;BME280;23457;51.966;8.230;2023-02-19T04:13:47;100873.91;;;10.08;100.00
37610;BME280;23457;51.966;8.230;2023-02-19T04:16:22;100877.75;;;9.85;100.00
37610;BME280;23457;51.966;8.230;2023-02-19T04:18:51;100883.59;;;9.75;100.00
37610;BME280;23457;51.966;8.230;2023-02-19T04:21:21;100885.38;;;9.79;100.00
37610;BME280;23457;51.966;8.230;2023-02-19T04:23:48;100887.59;;;10.01;100.00
37610;BME280;23457;51.966;8.230;2023-02-19T04:26:16;100902.75;;;10.20;100.00
37610;BME280;23457;51.966;8.230;2023-02-19T04:28:45;100896.22;;;9.59;100.00
37610;BME280;23457;51.966;8.230;2023-02-19T04:31:12;100898.44;;;9.82;100.00
37610;BME280;23457;51.966;8.230;2023-02-19T04:33:40;100907.63;;;9.67;100.00
37610;BME280;23457;51.966;8.230;2023-02-19T04:36:08;100907.59;;;9.66;100.00
37610;BME280;23457;51.966;8.230;2023-02-19T04:38:39;100917.34;;;9.75;100.00
37610;BME280;23457;51.966;8.230;2023-02-19T04:41:05;100912.84;;;9.67;100.00
37610;BME280;23457;51.966;8.230;2023-02-19T04:43:32;100914.69;;;10.12;100.00
37610;BME280;23457;51.966;8.230;2023-02-19T04:45:59;100919.28;;;9.85;100.00
37610;BME280;23457;51.966;8.230;2023-02-19T04:48:27;100921.50;;;9.68;100.00
37610;BME280;23457;51.966;8.230;2023-02-19T04:50:54;100935.38;;;9.70;100.00
37610;BME280;23457;51.966;8.230;2023-02-19T04:53:21;100932.25;;;9.85;100.00
37610;BME280;23457;51.966;8.230;2023-02-19T04:55:47;100933.09;;;9.84;100.00
37610;BME280;23457;51.966;8.230;2023-02-19T04:58:14;100945.72;;;9.68;100.00
37610;BME280;23457;51.966;8.230;2023-02-19T05:00:40;100945.88;;;9.76;100.00
37610;BME280;23457;51.966;8.230;2023-02-19T05:03:07;100948.53;;;9.78;100.00
37610;BME280;23457;51.966;8.230;2023-02-19T05:05:34;100949.69;;;9.90;100.00
37610;BME280;23457;51.966;8.230;2023-02-19T05:08:00;100953.03;;;9.85;100.00
37610;BME280;23457;51.966;8.230;2023-02-19T05:10:27;100957.50;;;9.92;100.00
37610;BME280;23457;51.966;8.230;2023-02-19T05:12:53;100963.25;;;9.79;100.00
37610;BME280;23457;51.966;8.230;2023-02-19T05:15:23;100959.97;;;9.48;100.00
37610;BME280;23457;51.966;8.230;2023-02-19T05:17:49;100959.25;;;9.93;100.00
37610;BME280;23457;51.966;8.230;2023-02-19T05:20:16;100971.44;;;9.58;100.00
37610;BME280;23457;51.966;8.230;2023-02-19T05:22:43;100968.09;;;9.62;100.00
37610;BME280;23457;51.966;8.230;2023-02-19T05:25:09;100969.28;;;9.78;100.00
37610;BME280;23457;51.966;8.230;2023-02-19T05:27:36;100973.47;;;9.71;100.00
37610;BME280;23457;51.966;8.230;2023-02-19T05:30:03;100982.19;;;9.73;100.00
37610;BME280;23457;51.966;8.230;2023-02-19T05:32:29;100979.88;;;9.49;100.00
37610;BME280;23457;51.966;8.230;2023-02-19T05:34:56;100976.84;;;9.67;100.00
37610;BME280;23457;51.966;8.230;2023-02-19T05:37:23;100988.59;;;9.53;100.00
37610;BME280;23457;51.966;8.230;2023-02-19T05:39:49;101004.91;;;9.47;100.00
37610;BME280;23457;51.966;8.230;2023-02-19T05:42:16;100990.00;;;9.75;100.00
37610;BME280;23457;51.966;8.230;2023-02-19T05:44:42;100984.75;;;9.72;100.00
37610;BME280;23457;51.966;8.230;2023-02-19T05:47:09;100990.19;;;9.82;100.00
37610;BME280;23457;51.966;8.230;2023-02-19T05:49:36;101006.81;;;9.54;100.00
37610;BME280;23457;51.966;8.230;2023-02-19T05:52:03;101008.34;;;9.82;100.00
37610;BME280;23457;51.966;8.230;2023-02-19T05:54:30;101011.56;;;9.72;100.00
37610;BME280;23457;51.966;8.230;2023-02-19T05:56:57;101017.19;;;9.54;100.00
37610;BME280;23457;51.966;8.230;2023-02-19T05:59:25;101025.97;;;9.59;100.00
37610;BME280;23457;51.966;8.230;2023-02-19T06:01:52;101034.88;;;9.36;100.00
37610;BME280;23457;51.966;8.230;2023-02-19T06:04:20;101033.50;;;9.50;100.00
37610;BME280;23457;51.966;8.230;2023-02-19T06:06:47;101037.41;;;9.33;100.00
37610;BME280;23457;51.966;8.230;2023-02-19T06:09:14;101032.06;;;9.61;100.00
37610;BME280;23457;51.966;8.230;2023-02-19T06:11:40;101044.25;;;9.31;100.00
37610;BME280;23457;51.966;8.230;2023-02-19T06:14:11;101041.28;;;9.50;100.00
37610;BME280;23457;51.966;8.230;2023-02-19T06:16:38;101051.66;;;9.49;100.00
37610;BME280;23457;51.966;8.230;2023-02-19T06:19:04;101046.16;;;9.37;100.00
37610;BME280;23457;51.966;8.230;2023-02-19T06:21:31;101055.69;;;9.39;100.00
37610;BME280;23457;51.966;8.230;2023-02-19T06:23:58;101053.72;;;9.29;100.00
37610;BME280;23457;51.966;8.230;2023-02-19T06:26:24;101052.41;;;9.12;100.00
37610;BME280;23457;51.966;8.230;2023-02-19T06:28:52;101064.34;;;9.07;100.00
37610;BME280;23457;51.966;8.230;2023-02-19T06:31:21;101066.91;;;9.38;100.00
37610;BME280;23457;51.966;8.230;2023-02-19T06:33:48;101067.00;;;9.41;100.00
37610;BME280;23457;51.966;8.230;2023-02-19T06:36:18;101065.16;;;9.70;100.00
37610;BME280;23457;51.966;8.230;2023-02-19T06:38:45;101074.34;;;9.24;100.00
37610;BME280;23457;51.966;8.230;2023-02-19T06:41:12;101073.84;;;9.39;100.00
37610;BME280;23457;51.966;8.230;2023-02-19T06:43:40;101076.53;;;9.42;100.00
37610;BME280;23457;51.966;8.230;2023-02-19T06:46:06;101077.03;;;9.29;100.00
37610;BME280;23457;51.966;8.230;2023-02-19T06:48:34;101090.66;;;9.53;100.00
37610;BME280;23457;51.966;8.230;2023-02-19T06:51:01;101085.06;;;9.38;100.00
37610;BME280;23457;51.966;8.230;2023-02-19T06:53:28;101102.84;;;9.56;100.00
37610;BME280;23457;51.966;8.230;2023-02-19T06:55:56;101096.03;;;9.59;100.00
37610;BME280;23457;51.966;8.230;2023-02-19T06:58:23;101100.25;;;9.23;100.00
37610;BME280;23457;51.966;8.230;2023-02-19T07:00:49;101106.50;;;9.31;100.00
37610;BME280;23457;51.966;8.230;2023-02-19T07:03:16;101108.41;;;9.38;100.00
37610;BME280;23457;51.966;8.230;2023-02-19T07:05:43;101129.53;;;9.52;100.00
37610;BME280;23457;51.966;8.230;2023-02-19T07:08:09;101132.69;;;9.40;100.00
37610;BME280;23457;51.966;8.230;2023-02-19T07:10:36;101131.59;;;9.32;100.00
37610;BME280;23457;51.966;8.230;2023-02-19T07:13:03;101127.06;;;9.25;100.00
37610;BME280;23457;51.966;8.230;2023-02-19T07:15:30;101155.75;;;9.29;100.00
37610;BME280;23457;51.966;8.230;2023-02-19T07:17:58;101178.19;;;9.29;100.00
37610;BME280;23457;51.966;8.230;2023-02-19T07:20:24;101175.06;;;9.09;100.00
37610;BME280;23457;51.966;8.230;2023-02-19T07:22:51;101205.72;;;8.67;100.00
37610;BME280;23457;51.966;8.230;2023-02-19T07:25:17;101218.84;;;8.45;100.00
37610;BME280;23457;51.966;8.230;2023-02-19T07:27:44;101218.47;;;8.09;100.00
37610;BME280;23457;51.966;8.230;2023-02-19T07:30:11;101230.50;;;7.83;100.00
37610;BME280;23457;51.966;8.230;2023-02-19T07:32:41;101241.06;;;7.41;100.00
37610;BME280;23457;51.966;8.230;2023-02-19T07:35:08;101238.59;;;7.44;100.00
37610;BME280;23457;51.966;8.230;2023-02-19T07:37:35;101247.81;;;7.38;100.00
37610;BME280;23457;51.966;8.230;2023-02-19T07:40:02;101246.31;;;7.43;100.00
37610;BME280;23457;51.966;8.230;2023-02-19T07:42:29;101259.03;;;7.38;100.00
37610;BME280;23457;51.966;8.230;2023-02-19T07:44:55;101267.53;;;7.34;100.00
37610;BME280;23457;51.966;8.230;2023-02-19T07:47:25;101277.16;;;7.16;100.00
37610;BME280;23457;51.966;8.230;2023-02-19T07:49:52;101266.31;;;7.48;100.00
37610;BME280;23457;51.966;8.230;2023-02-19T07:52:18;101277.88;;;7.34;100.00
37610;BME280;23457;51.966;8.230;2023-02-19T07:54:45;101279.63;;;7.58;100.00
37610;BME280;23457;51.966;8.230;2023-02-19T07:57:11;101276.97;;;7.56;100.00
37610;BME280;23457;51.966;8.230;2023-02-19T07:59:39;101281.22;;;7.78;100.00
37610;BME280;23457;51.966;8.230;2023-02-19T08:02:19;101279.00;;;7.65;100.00
37610;BME280;23457;51.966;8.230;2023-02-19T08:05:05;101283.84;;;7.55;100.00
37610;BME280;23457;51.966;8.230;2023-02-19T08:07:33;101298.56;;;7.34;100.00
37610;BME280;23457;51.966;8.230;2023-02-19T08:10:01;101297.63;;;7.32;100.00
37610;BME280;23457;51.966;8.230;2023-02-19T08:12:57;101305.88;;;7.24;100.00
37610;BME280;23457;51.966;8.230;2023-02-19T08:15:43;101321.69;;;7.09;100.00
37610;BME280;23457;51.966;8.230;2023-02-19T08:18:10;101317.22;;;7.27;100.00
37610;BME280;23457;51.966;8.230;2023-02-19T08:20:37;101318.78;;;7.01;100.00
37610;BME280;23457;51.966;8.230;2023-02-19T08:23:05;101310.06;;;7.42;100.00
37610;BME280;23457;51.966;8.230;2023-02-19T08:25:32;101322.59;;;7.32;100.00
37610;BME280;23457;51.966;8.230;2023-02-19T08:27:59;101334.03;;;7.16;100.00
37610;BME280;23457;51.966;8.230;2023-02-19T08:30:27;101331.91;;;7.50;100.00
37610;BME280;23457;51.966;8.230;2023-02-19T08:32:55;101344.97;;;7.31;100.00
37610;BME280;23457;51.966;8.230;2023-02-19T08:35:21;101348.03;;;7.21;100.00
37610;BME280;23457;51.966;8.230;2023-02-19T08:37:48;101341.16;;;7.44;100.00
37610;BME280;23457;51.966;8.230;2023-02-19T08:40:15;101343.69;;;7.20;100.00
37610;BME280;23457;51.966;8.230;2023-02-19T08:42:42;101347.31;;;7.25;100.00
37610;BME280;23457;51.966;8.230;2023-02-19T08:45:08;101357.00;;;7.08;100.00
37610;BME280;23457;51.966;8.230;2023-02-19T08:47:35;101365.50;;;7.06;100.00
37610;BME280;23457;51.966;8.230;2023-02-19T08:50:03;101372.38;;;7.05;100.00
37610;BME280;23457;51.966;8.230;2023-02-19T08:52:31;101384.50;;;7.06;100.00
37610;BME280;23457;51.966;8.230;2023-02-19T08:54:57;101385.13;;;7.22;100.00
37610;BME280;23457;51.966;8.230;2023-02-19T08:57:25;101386.06;;;7.03;100.00
37610;BME280;23457;51.966;8.230;2023-02-19T08:59:52;101390.28;;;7.01;100.00
37610;BME280;23457;51.966;8.230;2023-02-19T09:02:18;101391.72;;;7.15;100.00
37610;BME280;23457;51.966;8.230;2023-02-19T09:04:45;101392.16;;;7.26;100.00
37610;BME280;23457;51.966;8.230;2023-02-19T09:07:12;101397.34;;;7.05;100.00
37610;BME280;23457;51.966;8.230;2023-02-19T09:09:39;101404.13;;;7.24;100.00
37610;BME280;23457;51.966;8.230;2023-02-19T09:12:10;101399.03;;;7.25;100.00
37610;BME280;23457;51.966;8.230;2023-02-19T09:14:37;101395.06;;;7.12;100.00
37610;BME280;23457;51.966;8.230;2023-02-19T09:17:05;101408.41;;;7.23;100.00
37610;BME280;23457;51.966;8.230;2023-02-19T09:19:32;101411.06;;;7.25;100.00
37610;BME280;23457;51.966;8.230;2023-02-19T09:21:59;101422.16;;;7.22;100.00
37610;BME280;23457;51.966;8.230;2023-02-19T09:24:26;101425.91;;;7.08;100.00
37610;BME280;23457;51.966;8.230;2023-02-19T09:26:53;101423.22;;;6.86;100.00
37610;BME280;23457;51.966;8.230;2023-02-19T09:29:22;101426.78;;;7.08;100.00
37610;BME280;23457;51.966;8.230;2023-02-19T09:31:49;101418.53;;;7.17;100.00
37610;BME280;23457;51.966;8.230;2023-02-19T09:34:16;101428.28;;;7.24;100.00
37610;BME280;23457;51.966;8.230;2023-02-19T09:36:43;101435.16;;;7.44;100.00
37610;BME280;23457;51.966;8.230;2023-02-19T09:39:09;101442.50;;;7.34;100.00
37610;BME280;23457;51.966;8.230;2023-02-19T09:41:49;101449.38;;;7.33;100.00
37610;BME280;23457;51.966;8.230;2023-02-19T09:47:00;101463.59;;;7.24;100.00
37610;BME280;23457;51.966;8.230;2023-02-19T09:49:31;101470.53;;;7.45;100.00
37610;BME280;23457;51.966;8.230;2023-02-19T09:52:11;101489.38;;;7.22;100.00
37610;BME280;23457;51.966;8.230;2023-02-19T09:54:40;101494.69;;;7.25;100.00
37610;BME280;23457;51.966;8.230;2023-02-19T09:57:13;101496.44;;;7.26;100.00
37610;BME280;23457;51.966;8.230;2023-02-19T10:02:14;101519.22;;;7.14;100.00
37610;BME280;23457;51.966;8.230;2023-02-19T10:04:43;101529.44;;;7.32;100.00
37610;BME280;23457;51.966;8.230;2023-02-19T10:07:13;101529.25;;;7.27;100.00
37610;BME280;23457;51.966;8.230;2023-02-19T10:09:40;101534.88;;;7.38;100.00
37610;BME280;23457;51.966;8.230;2023-02-19T10:12:13;101531.28;;;7.34;100.00
37610;BME280;23457;51.966;8.230;2023-02-19T10:14:45;101543.13;;;7.29;100.00
37610;BME280;23457;51.966;8.230;2023-02-19T10:17:22;101561.63;;;7.38;100.00
37610;BME280;23457;51.966;8.230;2023-02-19T10:19:50;101558.88;;;7.35;100.00
37610;BME280;23457;51.966;8.230;2023-02-19T10:22:18;101563.91;;;7.51;100.00
37610;BME280;23457;51.966;8.230;2023-02-19T10:24:49;101557.38;;;7.40;100.00
37610;BME280;23457;51.966;8.230;2023-02-19T10:27:17;101565.66;;;7.52;100.00
37610;BME280;23457;51.966;8.230;2023-02-19T10:29:46;101560.69;;;7.57;100.00
37610;BME280;23457;51.966;8.230;2023-02-19T10:32:17;101572.78;;;7.79;100.00
37610;BME280;23457;51.966;8.230;2023-02-19T10:34:46;101580.63;;;7.60;100.00
37610;BME280;23457;51.966;8.230;2023-02-19T10:37:15;101591.00;;;7.40;100.00
37610;BME280;23457;51.966;8.230;2023-02-19T10:42:17;101585.81;;;7.60;100.00
37610;BME280;23457;51.966;8.230;2023-02-19T10:44:47;101586.78;;;7.42;100.00
37610;BME280;23457;51.966;8.230;2023-02-19T10:47:20;101583.41;;;7.64;100.00
37610;BME280;23457;51.966;8.230;2023-02-19T10:49:48;101586.72;;;7.62;100.00
37610;BME280;23457;51.966;8.230;2023-02-19T10:52:32;101591.31;;;7.27;100.00
37610;BME280;23457;51.966;8.230;2023-02-19T10:57:48;101596.13;;;7.39;100.00
37610;BME280;23457;51.966;8.230;2023-02-19T11:00:34;101598.59;;;7.57;100.00
37610;BME280;23457;51.966;8.230;2023-02-19T11:03:21;101602.56;;;7.90;100.00
37610;BME280;23457;51.966;8.230;2023-02-19T11:06:01;101612.28;;;8.16;100.00
37610;BME280;23457;51.966;8.230;2023-02-19T11:08:29;101611.94;;;8.30;100.00
37610;BME280;23457;51.966;8.230;2023-02-19T11:10:59;101609.81;;;8.40;100.00
37610;BME280;23457;51.966;8.230;2023-02-19T11:13:31;101621.41;;;8.50;100.00
37610;BME280;23457;51.966;8.230;2023-02-19T11:16:03;101628.69;;;8.38;100.00
37610;BME280;23457;51.966;8.230;2023-02-19T11:18:31;101624.63;;;8.23;100.00
37610;BME280;23457;51.966;8.230;2023-02-19T11:21:04;101624.31;;;8.37;100.00
37610;BME280;23457;51.966;8.230;2023-02-19T11:26:04;101611.56;;;8.63;100.00
37610;BME280;23457;51.966;8.230;2023-02-19T11:31:26;101616.53;;;8.57;100.00
37610;BME280;23457;51.966;8.230;2023-02-19T11:37:06;101613.41;;;8.44;100.00
37610;BME280;23457;51.966;8.230;2023-02-19T11:39:33;101613.63;;;8.50;100.00
37610;BME280;23457;51.966;8.230;2023-02-19T11:42:14;101606.69;;;8.71;100.00
37610;BME280;23457;51.966;8.230;2023-02-19T11:48:27;101601.19;;;8.86;100.00
37610;BME280;23457;51.966;8.230;2023-02-19T11:51:01;101605.59;;;8.88;98.72
37610;BME280;23457;51.966;8.230;2023-02-19T11:53:32;101603.09;;;8.91;97.19
37610;BME280;23457;51.966;8.230;2023-02-19T12:21:57;101614.41;;;9.66;99.05
37610;BME280;23457;51.966;8.230;2023-02-19T12:35:23;101635.34;;;9.22;92.72
37610;BME280;23457;51.966;8.230;2023-02-19T12:40:37;101628.50;;;9.24;92.99
37610;BME280;23457;51.966;8.230;2023-02-19T12:50:40;101640.63;;;9.25;93.01
37610;BME280;23457;51.966;8.230;2023-02-19T12:56:29;101650.47;;;9.10;92.52
37610;BME280;23457;51.966;8.230;2023-02-19T12:59:04;101655.97;;;8.95;93.04
37610;BME280;23457;51.966;8.230;2023-02-19T13:01:38;101659.25;;;8.91;94.69
37610;BME280;23457;51.966;8.230;2023-02-19T13:04:24;101647.81;;;9.32;93.16
37610;BME280;23457;51.966;8.230;2023-02-19T13:07:05;101645.25;;;9.57;92.58
37610;BME280;23457;51.966;8.230;2023-02-19T13:09:45;101652.22;;;9.58;89.50
37610;BME280;23457;51.966;8.230;2023-02-19T13:12:20;101654.47;;;9.25;92.35
37610;BME280;23457;51.966;8.230;2023-02-19T13:15:13;101653.81;;;9.55;89.35
37610;BME280;23457;51.966;8.230;2023-02-19T13:17:48;101646.78;;;9.52;88.61
37610;BME280;23457;51.966;8.230;2023-02-19T13:20:34;101635.72;;;9.82;91.36
37610;BME280;23457;51.966;8.230;2023-02-19T13:37:07;101652.09;;;9.81;84.31
37610;BME280;23457;51.966;8.230;2023-02-19T13:39:35;101651.91;;;9.75;84.37
37610;BME280;23457;51.966;8.230;2023-02-19T13:42:01;101654.59;;;9.78;88.05
37610;BME280;23457;51.966;8.230;2023-02-19T13:44:32;101660.44;;;9.96;87.59
37610;BME280;23457;51.966;8.230;2023-02-19T13:46:59;101672.56;;;9.97;85.95
37610;BME280;23457;51.966;8.230;2023-02-19T13:52:31;101661.50;;;9.77;90.21
37610;BME280;23457;51.966;8.230;2023-02-19T13:54:49;101662.47;;;9.55;89.46
37610;BME280;23457;51.966;8.230;2023-02-19T13:59:43;101665.31;;;9.87;89.69
37610;BME280;23457;51.966;8.230;2023-02-19T14:05:03;101658.66;;;9.69;89.58
37610;BME280;23457;51.966;8.230;2023-02-19T14:07:49;101665.28;;;9.36;89.19
37610;BME280;23457;51.966;8.230;2023-02-19T14:13:11;101670.34;;;9.33;87.38
37610;BME280;23457;51.966;8.230;2023-02-19T14:15:57;101678.28;;;9.61;87.60
37610;BME280;23457;51.966;8.230;2023-02-19T14:18:42;101684.91;;;9.53;88.72
37610;BME280;23457;51.966;8.230;2023-02-19T14:21:24;101684.72;;;9.98;87.18
37610;BME280;23457;51.966;8.230;2023-02-19T14:23:54;101684.72;;;9.98;84.93
37610;BME280;23457;51.966;8.230;2023-02-19T14:26:23;101692.19;;;9.89;85.11
37610;BME280;23457;51.966;8.230;2023-02-19T14:28:51;101707.63;;;9.84;84.46
37610;BME280;23457;51.966;8.230;2023-02-19T14:31:29;101713.72;;;9.85;83.66
37610;BME280;23457;51.966;8.230;2023-02-19T14:34:14;101701.63;;;9.61;87.25
37610;BME280;23457;51.966;8.230;2023-02-19T14:39:35;101709.56;;;9.42;85.99
37610;BME280;23457;51.966;8.230;2023-02-19T14:42:11;101711.19;;;9.62;86.35
37610;BME280;23457;51.966;8.230;2023-02-19T14:47:16;101714.81;;;9.67;84.15
37610;BME280;23457;51.966;8.230;2023-02-19T14:50:07;101709.25;;;9.57;86.11
37610;BME280;23457;51.966;8.230;2023-02-19T14:52:42;101702.34;;;9.57;85.19
37610;BME280;23457;51.966;8.230;2023-02-19T14:55:28;101700.81;;;9.62;86.44
37610;BME280;23457;51.966;8.230;2023-02-19T14:57:59;101696.97;;;9.77;85.25
37610;BME280;23457;51.966;8.230;2023-02-19T15:00:29;101682.81;;;9.43;86.47
37610;BME280;23457;51.966;8.230;2023-02-19T15:02:56;101674.84;;;9.62;86.24
37610;BME280;23457;51.966;8.230;2023-02-19T15:05:27;101672.84;;;9.55;87.06
37610;BME280;23457;51.966;8.230;2023-02-19T15:07:59;101670.13;;;9.76;87.23
37610;BME280;23457;51.966;8.230;2023-02-19T15:10:29;101665.78;;;9.75;88.40
37610;BME280;23457;51.966;8.230;2023-02-19T15:13:02;101657.59;;;9.64;90.14
37610;BME280;23457;51.966;8.230;2023-02-19T15:15:37;101656.19;;;9.25;90.84
37610;BME280;23457;51.966;8.230;2023-02-19T15:18:07;101657.69;;;9.42;92.41
37610;BME280;23457;51.966;8.230;2023-02-19T15:20:40;101649.56;;;9.57;91.32
37610;BME280;23457;51.966;8.230;2023-02-19T15:23:07;101643.22;;;9.49;89.52